sensor_id;sensor_type;location;lat;lon;timestamp;temperature;humidity
23815;DHT22;12088;53.078;8.720;2023-03-21T00:01:06;8.50;99.90
23815;DHT22;12088;53.078;8.720;2023-03-21T00:03:33;8.40;99.90
23815;DHT22;12088;53.078;8.720;2023-03-21T00:06:04;8.40;99.90
23815;DHT22;12088;53.078;8.720;2023-03-21T00:08:30;8.40;99.90
23815;DHT22;12088;53.078;8.720;2023-03-21T00:11:01;8.40;99.90
23815;DHT22;12088;53.078;8.720;2023-03-21T00:13:28;8.40;99.90
23815;DHT22;12088;53.078;8.720;2023-03-21T00:16:07;8.40;99.90
23815;DHT22;12088;53.078;8.720;2023-03-21T00:18:34;8.40;99.90
23815;DHT22;12088;53.078;8.720;2023-03-21T00:21:07;8.50;99.90
23815;DHT22;12088;53.078;8.720;2023-03-21T00:23:33;8.60;99.90
23815;DHT22;12088;53.078;8.720;2023-03-21T00:25:59;8.40;99.90
23815;DHT22;12088;53.078;8.720;2023-03-21T00:28:26;8.40;99.90
23815;DHT22;12088;53.078;8.720;2023-03-21T00:30:59;8.50;99.90
23815;DHT22;12088;53.078;8.720;2023-03-21T00:33:26;8.60;99.90
23815;DHT22;12088;53.078;8.720;2023-03-21T00:35:52;8.50;99.90
23815;DHT22;12088;53.078;8.720;2023-03-21T00:38:19;8.60;99.90
23815;DHT22;12088;53.078;8.720;2023-03-21T00:40:45;8.60;99.90
23815;DHT22;12088;53.078;8.720;2023-03-21T00:43:10;8.90;99.90
23815;DHT22;12088;53.078;8.720;2023-03-21T00:45:36;8.50;99.90
23815;DHT22;12088;53.078;8.720;2023-03-21T00:48:03;8.60;99.90
23815;DHT22;12088;53.078;8.720;2023-03-21T00:50:28;8.60;99.90
23815;DHT22;12088;53.078;8.720;2023-03-21T00:52:54;8.60;99.90
23815;DHT22;12088;53.078;8.720;2023-03-21T00:55:20;8.60;99.90
23815;DHT22;12088;53.078;8.720;2023-03-21T00:57:45;8.60;99.90
23815;DHT22;12088;53.078;8.720;2023-03-21T01:00:12;8.60;99.90
23815;DHT22;12088;53.078;8.720;2023-03-21T01:02:39;8.70;99.90
23815;DHT22;12088;53.078;8.720;2023-03-21T01:05:22;8.70;99.90
23815;DHT22;12088;53.078;8.720;2023-03-21T01:08:08;8.70;99.90
23815;DHT22;12088;53.078;8.720;2023-03-21T01:10:37;8.70;99.90
23815;DHT22;12088;53.078;8.720;2023-03-21T01:13:03;8.70;99.90
23815;DHT22;12088;53.078;8.720;2023-03-21T01:15:28;8.60;99.90
23815;DHT22;12088;53.078;8.720;2023-03-21T01:17:53;8.70;99.90
23815;DHT22;12088;53.078;8.720;2023-03-21T01:20:19;8.70;99.90
23815;DHT22;12088;53.078;8.720;2023-03-21T01:22:45;8.70;99.90
23815;DHT22;12088;53.078;8.720;2023-03-21T01:25:10;8.70;99.90
23815;DHT22;12088;53.078;8.720;2023-03-21T01:27:36;8.80;99.90
23815;DHT22;12088;53.078;8.720;2023-03-21T01:30:02;8.70;99.90
23815;DHT22;12088;53.078;8.720;2023-03-21T01:32:27;8.80;99.90
23815;DHT22;12088;53.078;8.720;2023-03-21T01:34:53;8.60;99.90
23815;DHT22;12088;53.078;8.720;2023-03-21T01:37:18;8.70;99.90
23815;DHT22;12088;53.078;8.720;2023-03-21T01:39:44;8.70;99.90
23815;DHT22;12088;53.078;8.720;2023-03-21T01:42:12;8.60;99.90
23815;DHT22;12088;53.078;8.720;2023-03-21T01:45:00;8.70;99.90
23815;DHT22;12088;53.078;8.720;2023-03-21T01:47:25;8.70;99.90
23815;DHT22;12088;53.078;8.720;2023-03-21T01:49:54;8.70;99.90
23815;DHT22;12088;53.078;8.720;2023-03-21T01:52:33;8.70;99.90
23815;DHT22;12088;53.078;8.720;2023-03-21T01:55:02;8.70;99.90
23815;DHT22;12088;53.078;8.720;2023-03-21T01:57:32;8.70;99.90
23815;DHT22;12088;53.078;8.720;2023-03-21T02:00:03;8.70;99.90
23815;DHT22;12088;53.078;8.720;2023-03-21T02:02:39;8.70;99.90
23815;DHT22;12088;53.078;8.720;2023-03-21T02:05:18;8.70;99.90
23815;DHT22;12088;53.078;8.720;2023-03-21T02:07:46;8.80;99.90
23815;DHT22;12088;53.078;8.720;2023-03-21T02:10:15;8.70;99.90
23815;DHT22;12088;53.078;8.720;2023-03-21T02:12:41;8.70;99.90
23815;DHT22;12088;53.078;8.720;2023-03-21T02:15:07;8.70;99.90
23815;DHT22;12088;53.078;8.720;2023-03-21T02:17:44;8.80;99.90
23815;DHT22;12088;53.078;8.720;2023-03-21T02:29:04;8.90;99.90
23815;DHT22;12088;53.078;8.720;2023-03-21T02:31:42;8.80;99.90
23815;DHT22;12088;53.078;8.720;2023-03-21T02:37:19;8.90;99.90
23815;DHT22;12088;53.078;8.720;2023-03-21T02:40:06;8.80;99.90
23815;DHT22;12088;53.078;8.720;2023-03-21T02:43:02;8.80;99.90
23815;DHT22;12088;53.078;8.720;2023-03-21T02:45:49;8.90;99.90
23815;DHT22;12088;53.078;8.720;2023-03-21T02:48:21;8.90;99.90
23815;DHT22;12088;53.078;8.720;2023-03-21T02:50:52;8.80;99.90
23815;DHT22;12088;53.078;8.720;2023-03-21T02:53:23;8.90;99.90
23815;DHT22;12088;53.078;8.720;2023-03-21T02:55:50;8.90;99.90
23815;DHT22;12088;53.078;8.720;2023-03-21T02:58:19;8.90;99.90
23815;DHT22;12088;53.078;8.720;2023-03-21T03:00:46;8.90;99.90
23815;DHT22;12088;53.078;8.720;2023-03-21T03:03:13;8.90;99.90
23815;DHT22;12088;53.078;8.720;2023-03-21T03:05:47;8.90;99.90
23815;DHT22;12088;53.078;8.720;2023-03-21T03:11:00;8.90;99.90
23815;DHT22;12088;53.078;8.720;2023-03-21T03:13:49;9.00;99.90
23815;DHT22;12088;53.078;8.720;2023-03-21T03:16:39;9.00;99.90
23815;DHT22;12088;53.078;8.720;2023-03-21T03:19:25;8.90;99.90
23815;DHT22;12088;53.078;8.720;2023-03-21T03:22:03;9.00;99.90
23815;DHT22;12088;53.078;8.720;2023-03-21T03:24:32;9.00;99.90
23815;DHT22;12088;53.078;8.720;2023-03-21T03:27:06;9.00;99.90
23815;DHT22;12088;53.078;8.720;2023-03-21T03:29:35;9.00;99.90
23815;DHT22;12088;53.078;8.720;2023-03-21T03:32:06;8.90;99.90
23815;DHT22;12088;53.078;8.720;2023-03-21T03:34:40;9.00;99.90
23815;DHT22;12088;53.078;8.720;2023-03-21T03:37:09;8.90;99.90
23815;DHT22;12088;53.078;8.720;2023-03-21T03:39:49;8.80;99.90
23815;DHT22;12088;53.078;8.720;2023-03-21T03:42:18;8.80;99.90
23815;DHT22;12088;53.078;8.720;2023-03-21T03:44:46;8.80;99.90
23815;DHT22;12088;53.078;8.720;2023-03-21T03:47:27;8.90;99.90
23815;DHT22;12088;53.078;8.720;2023-03-21T03:52:31;8.80;99.90
23815;DHT22;12088;53.078;8.720;2023-03-21T03:54:57;8.80;99.90
23815;DHT22;12088;53.078;8.720;2023-03-21T03:57:24;8.80;99.90
23815;DHT22;12088;53.078;8.720;2023-03-21T03:59:50;8.80;99.90
23815;DHT22;12088;53.078;8.720;2023-03-21T04:02:16;8.80;99.90
23815;DHT22;12088;53.078;8.720;2023-03-21T04:04:41;8.80;99.90
23815;DHT22;12088;53.078;8.720;2023-03-21T04:07:07;8.80;99.90
23815;DHT22;12088;53.078;8.720;2023-03-21T04:09:33;8.80;99.90
23815;DHT22;12088;53.078;8.720;2023-03-21T04:11:58;8.80;99.90
23815;DHT22;12088;53.078;8.720;2023-03-21T04:14:25;8.90;99.90
23815;DHT22;12088;53.078;8.720;2023-03-21T04:16:50;8.90;99.90
23815;DHT22;12088;53.078;8.720;2023-03-21T04:19:17;8.90;99.90
23815;DHT22;12088;53.078;8.720;2023-03-21T04:21:43;8.90;99.90
23815;DHT22;12088;53.078;8.720;2023-03-21T04:24:10;8.90;99.90
23815;DHT22;12088;53.078;8.720;2023-03-21T04:26:36;8.90;99.90
23815;DHT22;12088;53.078;8.720;2023-03-21T04:29:02;8.90;99.90
23815;DHT22;12088;53.078;8.720;2023-03-21T04:31:29;8.90;99.90
23815;DHT22;12088;53.078;8.720;2023-03-21T04:34:05;8.90;99.90
23815;DHT22;12088;53.078;8.720;2023-03-21T04:36:36;8.90;99.90
23815;DHT22;12088;53.078;8.720;2023-03-21T04:39:12;9.00;99.90
23815;DHT22;12088;53.078;8.720;2023-03-21T04:41:43;8.90;99.90
23815;DHT22;12088;53.078;8.720;2023-03-21T04:44:10;9.00;99.90
23815;DHT22;12088;53.078;8.720;2023-03-21T04:46:37;9.00;99.90
23815;DHT22;12088;53.078;8.720;2023-03-21T04:49:03;8.90;99.90
23815;DHT22;12088;53.078;8.720;2023-03-21T04:51:29;8.90;99.90
23815;DHT22;12088;53.078;8.720;2023-03-21T04:53:55;8.90;99.90
23815;DHT22;12088;53.078;8.720;2023-03-21T04:56:23;9.00;99.90
23815;DHT22;12088;53.078;8.720;2023-03-21T04:58:55;9.00;99.90
23815;DHT22;12088;53.078;8.720;2023-03-21T05:01:20;9.10;99.90
23815;DHT22;12088;53.078;8.720;2023-03-21T05:03:46;9.00;99.90
23815;DHT22;12088;53.078;8.720;2023-03-21T05:06:11;9.10;99.90
23815;DHT22;12088;53.078;8.720;2023-03-21T05:08:37;9.10;99.90
23815;DHT22;12088;53.078;8.720;2023-03-21T05:11:03;9.10;99.90
23815;DHT22;12088;53.078;8.720;2023-03-21T05:13:29;9.20;99.90
23815;DHT22;12088;53.078;8.720;2023-03-21T05:15:54;9.20;99.90
23815;DHT22;12088;53.078;8.720;2023-03-21T05:18:20;9.10;99.90
23815;DHT22;12088;53.078;8.720;2023-03-21T05:20:50;9.10;99.90
23815;DHT22;12088;53.078;8.720;2023-03-21T05:23:19;9.20;99.90
23815;DHT22;12088;53.078;8.720;2023-03-21T05:25:45;9.20;99.90
23815;DHT22;12088;53.078;8.720;2023-03-21T05:28:10;9.10;99.90
23815;DHT22;12088;53.078;8.720;2023-03-21T05:30:36;9.10;99.90
23815;DHT22;12088;53.078;8.720;2023-03-21T05:33:02;9.20;99.90
23815;DHT22;12088;53.078;8.720;2023-03-21T05:35:28;9.10;99.90
23815;DHT22;12088;53.078;8.720;2023-03-21T05:37:53;9.20;99.90
23815;DHT22;12088;53.078;8.720;2023-03-21T05:40:19;9.20;99.90
23815;DHT22;12088;53.078;8.720;2023-03-21T05:42:45;9.20;99.90
23815;DHT22;12088;53.078;8.720;2023-03-21T05:45:12;9.10;99.90
23815;DHT22;12088;53.078;8.720;2023-03-21T05:47:37;9.20;99.90
23815;DHT22;12088;53.078;8.720;2023-03-21T05:50:03;9.20;99.90
23815;DHT22;12088;53.078;8.720;2023-03-21T05:52:29;9.20;99.90
23815;DHT22;12088;53.078;8.720;2023-03-21T05:54:54;9.20;99.90
23815;DHT22;12088;53.078;8.720;2023-03-21T05:57:20;9.20;99.90
23815;DHT22;12088;53.078;8.720;2023-03-21T05:59:45;9.20;99.90
23815;DHT22;12088;53.078;8.720;2023-03-21T06:02:11;9.20;99.90
23815;DHT22;12088;53.078;8.720;2023-03-21T06:04:36;9.30;99.90
23815;DHT22;12088;53.078;8.720;2023-03-21T06:07:02;9.40;99.90
23815;DHT22;12088;53.078;8.720;2023-03-21T06:09:28;9.40;99.90
23815;DHT22;12088;53.078;8.720;2023-03-21T06:11:55;9.40;99.90
23815;DHT22;12088;53.078;8.720;2023-03-21T06:14:21;9.30;99.90
23815;DHT22;12088;53.078;8.720;2023-03-21T06:16:47;9.40;99.90
23815;DHT22;12088;53.078;8.720;2023-03-21T06:19:13;9.40;99.90
23815;DHT22;12088;53.078;8.720;2023-03-21T06:21:38;9.40;99.90
23815;DHT22;12088;53.078;8.720;2023-03-21T06:24:04;9.50;99.90
23815;DHT22;12088;53.078;8.720;2023-03-21T06:26:30;9.50;99.90
23815;DHT22;12088;53.078;8.720;2023-03-21T06:28:55;9.50;99.90
23815;DHT22;12088;53.078;8.720;2023-03-21T06:31:21;9.50;99.90
23815;DHT22;12088;53.078;8.720;2023-03-21T06:33:48;9.50;99.90
23815;DHT22;12088;53.078;8.720;2023-03-21T06:36:14;9.60;99.90
23815;DHT22;12088;53.078;8.720;2023-03-21T06:38:39;9.50;99.90
23815;DHT22;12088;53.078;8.720;2023-03-21T06:41:08;9.60;99.90
23815;DHT22;12088;53.078;8.720;2023-03-21T06:43:34;9.60;99.90
23815;DHT22;12088;53.078;8.720;2023-03-21T06:46:00;9.70;99.90
23815;DHT22;12088;53.078;8.720;2023-03-21T06:48:26;9.70;99.90
23815;DHT22;12088;53.078;8.720;2023-03-21T06:50:53;9.80;99.90
23815;DHT22;12088;53.078;8.720;2023-03-21T06:53:20;9.90;99.90
23815;DHT22;12088;53.078;8.720;2023-03-21T06:55:52;9.80;99.90
23815;DHT22;12088;53.078;8.720;2023-03-21T06:58:18;9.80;99.90
23815;DHT22;12088;53.078;8.720;2023-03-21T07:00:44;9.70;99.90
23815;DHT22;12088;53.078;8.720;2023-03-21T07:03:11;9.80;99.90
23815;DHT22;12088;53.078;8.720;2023-03-21T07:05:37;9.70;99.90
23815;DHT22;12088;53.078;8.720;2023-03-21T07:08:03;9.80;99.90
23815;DHT22;12088;53.078;8.720;2023-03-21T07:10:29;9.90;99.90
23815;DHT22;12088;53.078;8.720;2023-03-21T07:12:55;9.90;99.90
23815;DHT22;12088;53.078;8.720;2023-03-21T07:15:20;9.80;99.90
23815;DHT22;12088;53.078;8.720;2023-03-21T07:17:46;9.90;99.90
23815;DHT22;12088;53.078;8.720;2023-03-21T07:20:11;9.80;99.90
23815;DHT22;12088;53.078;8.720;2023-03-21T07:22:37;9.90;99.90
23815;DHT22;12088;53.078;8.720;2023-03-21T07:25:03;9.90;99.90
23815;DHT22;12088;53.078;8.720;2023-03-21T07:27:29;9.90;99.90
23815;DHT22;12088;53.078;8.720;2023-03-21T07:29:54;9.90;99.90
23815;DHT22;12088;53.078;8.720;2023-03-21T07:32:19;10.00;99.90
23815;DHT22;12088;53.078;8.720;2023-03-21T07:34:45;9.90;99.90
23815;DHT22;12088;53.078;8.720;2023-03-21T07:37:10;10.00;99.90
23815;DHT22;12088;53.078;8.720;2023-03-21T07:39:36;10.10;99.90
23815;DHT22;12088;53.078;8.720;2023-03-21T07:42:02;10.10;99.90
23815;DHT22;12088;53.078;8.720;2023-03-21T07:44:28;10.00;99.90
23815;DHT22;12088;53.078;8.720;2023-03-21T07:46:54;10.00;99.90
23815;DHT22;12088;53.078;8.720;2023-03-21T07:49:20;10.00;99.90
23815;DHT22;12088;53.078;8.720;2023-03-21T07:51:45;10.10;99.90
23815;DHT22;12088;53.078;8.720;2023-03-21T07:54:11;10.10;99.90
23815;DHT22;12088;53.078;8.720;2023-03-21T07:56:37;10.10;99.90
23815;DHT22;12088;53.078;8.720;2023-03-21T07:59:02;10.10;99.90
23815;DHT22;12088;53.078;8.720;2023-03-21T08:01:29;10.00;99.90
23815;DHT22;12088;53.078;8.720;2023-03-21T08:03:55;10.00;99.90
23815;DHT22;12088;53.078;8.720;2023-03-21T08:06:20;10.00;99.90
23815;DHT22;12088;53.078;8.720;2023-03-21T08:08:46;10.00;99.90
23815;DHT22;12088;53.078;8.720;2023-03-21T08:11:12;10.00;99.90
23815;DHT22;12088;53.078;8.720;2023-03-21T08:13:39;10.00;99.90
23815;DHT22;12088;53.078;8.720;2023-03-21T08:16:04;10.00;99.90
23815;DHT22;12088;53.078;8.720;2023-03-21T08:18:31;10.00;99.90
23815;DHT22;12088;53.078;8.720;2023-03-21T08:20:56;10.10;99.90
23815;DHT22;12088;53.078;8.720;2023-03-21T08:23:23;10.00;99.90
23815;DHT22;12088;53.078;8.720;2023-03-21T08:25:55;10.10;99.90
23815;DHT22;12088;53.078;8.720;2023-03-21T08:28:22;10.10;99.90
23815;DHT22;12088;53.078;8.720;2023-03-21T08:30:48;10.00;99.90
23815;DHT22;12088;53.078;8.720;2023-03-21T08:33:14;10.00;99.90
23815;DHT22;12088;53.078;8.720;2023-03-21T08:35:41;10.00;99.90
23815;DHT22;12088;53.078;8.720;2023-03-21T08:38:07;10.10;99.90
23815;DHT22;12088;53.078;8.720;2023-03-21T08:40:33;10.10;99.90
23815;DHT22;12088;53.078;8.720;2023-03-21T08:42:58;10.10;99.90
23815;DHT22;12088;53.078;8.720;2023-03-21T08:45:25;10.20;99.90
23815;DHT22;12088;53.078;8.720;2023-03-21T08:47:52;10.20;99.90
23815;DHT22;12088;53.078;8.720;2023-03-21T08:50:20;10.30;99.90
23815;DHT22;12088;53.078;8.720;2023-03-21T08:52:46;10.30;99.90
23815;DHT22;12088;53.078;8.720;2023-03-21T08:55:12;10.30;99.90
23815;DHT22;12088;53.078;8.720;2023-03-21T08:57:38;10.30;99.90
23815;DHT22;12088;53.078;8.720;2023-03-21T09:00:06;10.40;99.90
23815;DHT22;12088;53.078;8.720;2023-03-21T09:02:39;10.30;99.90
23815;DHT22;12088;53.078;8.720;2023-03-21T09:05:06;10.30;99.90
23815;DHT22;12088;53.078;8.720;2023-03-21T09:07:33;10.30;99.90
23815;DHT22;12088;53.078;8.720;2023-03-21T09:10:04;10.30;99.90
23815;DHT22;12088;53.078;8.720;2023-03-21T09:12:31;10.30;99.90
23815;DHT22;12088;53.078;8.720;2023-03-21T09:14:57;10.30;99.90
23815;DHT22;12088;53.078;8.720;2023-03-21T09:17:22;10.40;99.90
23815;DHT22;12088;53.078;8.720;2023-03-21T09:19:48;10.40;99.90
23815;DHT22;12088;53.078;8.720;2023-03-21T09:22:15;10.40;99.90
23815;DHT22;12088;53.078;8.720;2023-03-21T09:24:43;10.30;99.90
23815;DHT22;12088;53.078;8.720;2023-03-21T09:27:12;10.30;99.90
23815;DHT22;12088;53.078;8.720;2023-03-21T09:29:38;10.40;99.90
23815;DHT22;12088;53.078;8.720;2023-03-21T09:32:04;10.40;99.90
23815;DHT22;12088;53.078;8.720;2023-03-21T09:34:30;10.40;99.90
23815;DHT22;12088;53.078;8.720;2023-03-21T09:36:56;10.40;99.90
23815;DHT22;12088;53.078;8.720;2023-03-21T09:39:22;10.50;99.90
23815;DHT22;12088;53.078;8.720;2023-03-21T09:47:19;10.50;99.90
23815;DHT22;12088;53.078;8.720;2023-03-21T09:49:49;10.60;99.90
23815;DHT22;12088;53.078;8.720;2023-03-21T09:52:27;10.50;99.90
23815;DHT22;12088;53.078;8.720;2023-03-21T09:54:53;10.60;99.90
23815;DHT22;12088;53.078;8.720;2023-03-21T09:57:37;10.50;99.90
23815;DHT22;12088;53.078;8.720;2023-03-21T10:00:18;10.50;99.90
23815;DHT22;12088;53.078;8.720;2023-03-21T10:02:51;10.50;99.90
23815;DHT22;12088;53.078;8.720;2023-03-21T10:05:19;10.50;99.90
23815;DHT22;12088;53.078;8.720;2023-03-21T10:07:51;10.50;99.90
23815;DHT22;12088;53.078;8.720;2023-03-21T10:10:22;10.60;99.90
23815;DHT22;12088;53.078;8.720;2023-03-21T10:12:52;10.80;99.90
23815;DHT22;12088;53.078;8.720;2023-03-21T10:15:20;10.90;99.90
23815;DHT22;12088;53.078;8.720;2023-03-21T10:18:05;10.70;99.90
23815;DHT22;12088;53.078;8.720;2023-03-21T10:20:35;10.50;99.90
23815;DHT22;12088;53.078;8.720;2023-03-21T10:23:07;10.40;99.90
23815;DHT22;12088;53.078;8.720;2023-03-21T10:25:40;10.30;99.90
23815;DHT22;12088;53.078;8.720;2023-03-21T10:28:07;10.40;99.90
23815;DHT22;12088;53.078;8.720;2023-03-21T10:30:41;10.40;99.90
23815;DHT22;12088;53.078;8.720;2023-03-21T10:33:13;10.40;99.90
23815;DHT22;12088;53.078;8.720;2023-03-21T10:35:42;10.40;99.90
23815;DHT22;12088;53.078;8.720;2023-03-21T10:38:15;10.40;99.90
23815;DHT22;12088;53.078;8.720;2023-03-21T10:40:41;10.50;99.90
23815;DHT22;12088;53.078;8.720;2023-03-21T10:45:52;10.60;99.90
23815;DHT22;12088;53.078;8.720;2023-03-21T10:48:19;10.60;99.90
23815;DHT22;12088;53.078;8.720;2023-03-21T10:50:47;10.50;99.90
23815;DHT22;12088;53.078;8.720;2023-03-21T10:53:28;10.40;99.90
23815;DHT22;12088;53.078;8.720;2023-03-21T10:55:58;10.40;99.90
23815;DHT22;12088;53.078;8.720;2023-03-21T10:58:27;10.50;99.90
23815;DHT22;12088;53.078;8.720;2023-03-21T11:01:01;10.60;99.90
23815;DHT22;12088;53.078;8.720;2023-03-21T11:03:31;10.70;99.90
23815;DHT22;12088;53.078;8.720;2023-03-21T11:06:14;10.60;99.90
23815;DHT22;12088;53.078;8.720;2023-03-21T11:08:45;10.60;99.90
23815;DHT22;12088;53.078;8.720;2023-03-21T11:11:27;10.60;99.90
23815;DHT22;12088;53.078;8.720;2023-03-21T11:14:02;10.70;99.90
23815;DHT22;12088;53.078;8.720;2023-03-21T11:16:42;10.70;99.90
23815;DHT22;12088;53.078;8.720;2023-03-21T11:19:19;10.60;99.90
23815;DHT22;12088;53.078;8.720;2023-03-21T11:21:50;10.70;99.90
23815;DHT22;12088;53.078;8.720;2023-03-21T11:24:17;10.60;99.90
23815;DHT22;12088;53.078;8.720;2023-03-21T11:26:45;10.70;99.90
23815;DHT22;12088;53.078;8.720;2023-03-21T11:29:26;10.80;99.90
23815;DHT22;12088;53.078;8.720;2023-03-21T11:31:56;10.80;99.90
23815;DHT22;12088;53.078;8.720;2023-03-21T11:37:20;10.80;99.90
23815;DHT22;12088;53.078;8.720;2023-03-21T11:39:54;10.90;99.90
23815;DHT22;12088;53.078;8.720;2023-03-21T11:42:32;10.80;99.90
23815;DHT22;12088;53.078;8.720;2023-03-21T11:45:14;10.70;99.90
23815;DHT22;12088;53.078;8.720;2023-03-21T11:47:39;10.70;99.90
23815;DHT22;12088;53.078;8.720;2023-03-21T11:50:19;10.80;99.90
23815;DHT22;12088;53.078;8.720;2023-03-21T11:56:00;10.70;99.90
23815;DHT22;12088;53.078;8.720;2023-03-21T11:58:54;10.80;99.90
23815;DHT22;12088;53.078;8.720;2023-03-21T12:01:36;10.90;99.90
23815;DHT22;12088;53.078;8.720;2023-03-21T12:06:38;10.90;99.90
23815;DHT22;12088;53.078;8.720;2023-03-21T12:09:24;10.80;99.90
23815;DHT22;12088;53.078;8.720;2023-03-21T12:12:08;10.80;99.90
23815;DHT22;12088;53.078;8.720;2023-03-21T12:17:52;10.60;99.90
23815;DHT22;12088;53.078;8.720;2023-03-21T12:25:44;10.70;99.90
23815;DHT22;12088;53.078;8.720;2023-03-21T12:34:17;10.60;99.90
23815;DHT22;12088;53.078;8.720;2023-03-21T12:39:38;10.70;99.90
23815;DHT22;12088;53.078;8.720;2023-03-21T12:44:46;10.70;99.90
23815;DHT22;12088;53.078;8.720;2023-03-21T12:47:16;10.90;99.90
23815;DHT22;12088;53.078;8.720;2023-03-21T12:49:52;10.80;99.90
23815;DHT22;12088;53.078;8.720;2023-03-21T12:52:22;11.00;99.90
23815;DHT22;12088;53.078;8.720;2023-03-21T12:54:54;10.90;99.90
23815;DHT22;12088;53.078;8.720;2023-03-21T12:57:34;10.80;99.90
23815;DHT22;12088;53.078;8.720;2023-03-21T13:00:08;10.80;99.90
23815;DHT22;12088;53.078;8.720;2023-03-21T13:02:49;10.70;99.90
23815;DHT22;12088;53.078;8.720;2023-03-21T13:05:29;10.70;99.90
23815;DHT22;12088;53.078;8.720;2023-03-21T13:08:16;10.70;99.90
23815;DHT22;12088;53.078;8.720;2023-03-21T13:10:44;10.60;99.90
23815;DHT22;12088;53.078;8.720;2023-03-21T13:18:51;10.60;99.90
23815;DHT22;12088;53.078;8.720;2023-03-21T13:21:54;10.50;99.90
23815;DHT22;12088;53.078;8.720;2023-03-21T13:24:38;10.50;99.90
23815;DHT22;12088;53.078;8.720;2023-03-21T13:27:14;10.50;99.90
23815;DHT22;12088;53.078;8.720;2023-03-21T13:29:51;10.50;99.90
23815;DHT22;12088;53.078;8.720;2023-03-21T13:32:32;10.40;99.90
23815;DHT22;12088;53.078;8.720;2023-03-21T13:35:18;10.50;99.90
23815;DHT22;12088;53.078;8.720;2023-03-21T13:37:57;10.50;99.90
23815;DHT22;12088;53.078;8.720;2023-03-21T13:40:43;10.50;99.90
23815;DHT22;12088;53.078;8.720;2023-03-21T13:46:22;10.40;99.90
23815;DHT22;12088;53.078;8.720;2023-03-21T13:49:42;10.40;99.90
23815;DHT22;12088;53.078;8.720;2023-03-21T13:51:54;10.50;99.90
23815;DHT22;12088;53.078;8.720;2023-03-21T13:54:44;10.50;99.90
23815;DHT22;12088;53.078;8.720;2023-03-21T13:57:21;10.60;99.90
23815;DHT22;12088;53.078;8.720;2023-03-21T13:59:47;10.50;99.90
23815;DHT22;12088;53.078;8.720;2023-03-21T14:02:32;10.60;99.90
23815;DHT22;12088;53.078;8.720;2023-03-21T14:05:13;10.70;99.90
23815;DHT22;12088;53.078;8.720;2023-03-21T14:07:43;10.70;99.90
23815;DHT22;12088;53.078;8.720;2023-03-21T14:10:19;10.80;99.90
23815;DHT22;12088;53.078;8.720;2023-03-21T14:12:47;10.90;99.90
23815;DHT22;12088;53.078;8.720;2023-03-21T14:15:23;10.80;99.90
23815;DHT22;12088;53.078;8.720;2023-03-21T14:17:58;10.90;99.90
23815;DHT22;12088;53.078;8.720;2023-03-21T14:20:28;10.80;99.90
23815;DHT22;12088;53.078;8.720;2023-03-21T14:22:55;10.90;99.90
23815;DHT22;12088;53.078;8.720;2023-03-21T14:25:22;10.80;99.90
23815;DHT22;12088;53.078;8.720;2023-03-21T14:27:52;10.90;99.90
23815;DHT22;12088;53.078;8.720;2023-03-21T14:30:35;10.80;99.90
23815;DHT22;12088;53.078;8.720;2023-03-21T14:33:12;11.00;99.90
23815;DHT22;12088;53.078;8.720;2023-03-21T14:35:40;10.90;99.90
23815;DHT22;12088;53.078;8.720;2023-03-21T14:38:07;11.00;99.90
23815;DHT22;12088;53.078;8.720;2023-03-21T14:40:34;11.00;99.90
23815;DHT22;12088;53.078;8.720;2023-03-21T14:43:06;11.10;99.90
23815;DHT22;12088;53.078;8.720;2023-03-21T14:45:33;11.00;99.90
23815;DHT22;12088;53.078;8.720;2023-03-21T14:48:20;11.10;99.90
23815;DHT22;12088;53.078;8.720;2023-03-21T14:50:48;11.10;99.90
23815;DHT22;12088;53.078;8.720;2023-03-21T14:53:18;11.10;99.90
23815;DHT22;12088;53.078;8.720;2023-03-21T14:55:50;11.10;99.90
23815;DHT22;12088;53.078;8.720;2023-03-21T14:58:18;11.20;99.90
23815;DHT22;12088;53.078;8.720;2023-03-21T15:00:48;11.20;99.90
23815;DHT22;12088;53.078;8.720;2023-03-21T15:03:17;11.20;99.90
23815;DHT22;12088;53.078;8.720;2023-03-21T15:05:44;11.30;99.90
23815;DHT22;12088;53.078;8.720;2023-03-21T15:10:36;11.20;99.90
23815;DHT22;12088;53.078;8.720;2023-03-21T15:13:14;11.20;99.90
23815;DHT22;12088;53.078;8.720;2023-03-21T15:15:41;11.10;99.90
23815;DHT22;12088;53.078;8.720;2023-03-21T15:18:07;11.20;99.90
23815;DHT22;12088;53.078;8.720;2023-03-21T15:20:36;11.20;99.90
23815;DHT22;12088;53.078;8.720;2023-03-21T15:23:09;11.20;99.90
23815;DHT22;12088;53.078;8.720;2023-03-21T15:25:36;11.10;99.90
23815;DHT22;12088;53.078;8.720;2023-03-21T15:28:02;11.10;99.90
23815;DHT22;12088;53.078;8.720;2023-03-21T15:30:29;11.20;99.90
23815;DHT22;12088;53.078;8.720;2023-03-21T15:32:56;11.30;99.90
23815;DHT22;12088;53.078;8.720;2023-03-21T15:35:36;11.30;99.90
23815;DHT22;12088;53.078;8.720;2023-03-21T15:38:02;11.20;99.90
23815;DHT22;12088;53.078;8.720;2023-03-21T15:40:30;11.20;99.90
23815;DHT22;12088;53.078;8.720;2023-03-21T15:43:13;11.30;99.90
23815;DHT22;12088;53.078;8.720;2023-03-21T15:45:53;11.40;99.90
23815;DHT22;12088;53.078;8.720;2023-03-21T15:48:33;11.30;99.90
23815;DHT22;12088;53.078;8.720;2023-03-21T15:51:02;11.40;99.90
23815;DHT22;12088;53.078;8.720;2023-03-21T15:53:31;11.30;99.90
23815;DHT22;12088;53.078;8.720;2023-03-21T15:55:58;11.30;99.90
23815;DHT22;12088;53.078;8.720;2023-03-21T15:58:36;11.30;99.90
23815;DHT22;12088;53.078;8.720;2023-03-21T16:01:11;11.30;99.90
23815;DHT22;12088;53.078;8.720;2023-03-21T16:03:42;11.30;99.90
23815;DHT22;12088;53.078;8.720;2023-03-21T16:09:03;11.40;99.90
23815;DHT22;12088;53.078;8.720;2023-03-21T16:13:49;11.30;99.90
23815;DHT22;12088;53.078;8.720;2023-03-21T16:16:24;11.30;99.90
23815;DHT22;12088;53.078;8.720;2023-03-21T16:18:51;11.30;99.90
23815;DHT22;12088;53.078;8.720;2023-03-21T16:21:20;11.30;99.90
23815;DHT22;12088;53.078;8.720;2023-03-21T16:23:47;11.30;99.90
23815;DHT22;12088;53.078;8.720;2023-03-21T16:26:16;11.40;99.90
23815;DHT22;12088;53.078;8.720;2023-03-21T16:28:43;11.30;99.90
23815;DHT22;12088;53.078;8.720;2023-03-21T16:31:13;11.30;99.90
23815;DHT22;12088;53.078;8.720;2023-03-21T16:33:39;11.30;99.90
23815;DHT22;12088;53.078;8.720;2023-03-21T16:36:05;11.40;99.90
23815;DHT22;12088;53.078;8.720;2023-03-21T16:38:31;11.30;99.90
23815;DHT22;12088;53.078;8.720;2023-03-21T16:40:57;11.30;99.90
23815;DHT22;12088;53.078;8.720;2023-03-21T16:43:25;11.30;99.90
23815;DHT22;12088;53.078;8.720;2023-03-21T16:45:50;11.20;99.90
23815;DHT22;12088;53.078;8.720;2023-03-21T16:48:16;11.30;99.90
23815;DHT22;12088;53.078;8.720;2023-03-21T16:50:46;11.20;99.90
23815;DHT22;12088;53.078;8.720;2023-03-21T16:53:12;11.20;99.90
23815;DHT22;12088;53.078;8.720;2023-03-21T16:55:37;11.20;99.90
23815;DHT22;12088;53.078;8.720;2023-03-21T16:58:04;11.30;99.90
23815;DHT22;12088;53.078;8.720;2023-03-21T17:00:30;11.30;99.90
23815;DHT22;12088;53.078;8.720;2023-03-21T17:02:59;11.30;99.90
23815;DHT22;12088;53.078;8.720;2023-03-21T17:05:28;11.30;99.90